Time;durP1;ratioP1;P1;durP2;ratioP2;P2;SDS_P1;SDS_P2;PMS_P1;PMS_P2;Temp;Humidity;BMP_temperature;BMP_pressure;BME280_temperature;BME280_humidity;BME280_pressure;Samples;Min_cycle;Max_cycle;Signal;HPM_P1;HPM_P2
2022/06/20 00:01:07;;;;;;;;;;;;;;;;;;4936920;28;1019;-75
2022/06/20 00:03:36;;;;;;;;;;;;;;;;;;4957764;28;853;-75
2022/06/20 00:06:03;;;;;;;;;;;;;;;;;;4953416;28;1309;-78
2022/06/20 00:08:30;;;;;;;;;;;;;;;;;;4958976;28;858;-75
2022/06/20 00:10:56;;;;;;;;;;;;;;;;;;4942467;28;950;-77
2022/06/20 00:13:24;;;;;;;;;;;;;;;;;;4958215;28;882;-76
2022/06/20 00:15:51;;;;;;;;;;;;;;;;;;4953404;28;1421;-76
2022/06/20 00:18:18;;;;;;;;;;;;;;;;;;4955453;28;1993;-74
2022/06/20 00:20:49;;;;;;;;;;;;;;;;;;4937641;28;1190;-74
2022/06/20 00:23:16;;;;;;;;;;;;;;;;;;4931116;28;1369;-77
2022/06/20 00:25:42;;;;;;;;;;;;;;;;;;4932591;28;1365;-77
2022/06/20 00:28:09;;;;;;;;;;;;;;;;;;4967881;28;1618;-76
2022/06/20 00:30:36;;;;;;;;;;;;;;;;;;5030674;28;1099;-76
2022/06/20 00:33:02;;;;;;;;;;;;;;;;;;5046367;28;1119;-77
2022/06/20 00:35:28;;;;;;;;;;;;;;;;;;5032652;28;1048;-76
2022/06/20 00:37:56;;;;;;;;;;;;;;;;;;5030976;28;1906;-76
2022/06/20 00:40:24;;;;;;;;;;;;;;;;;;5032080;28;1044;-76
2022/06/20 00:42:51;;;;;;;;;;;;;;;;;;5023444;28;1508;-76
2022/06/20 00:45:18;;;;;;;;;;;;;;;;;;4951743;28;1324;-75
2022/06/20 00:47:44;;;;;;;;;;;;;;;;;;4957642;28;1906;-77
2022/06/20 00:50:12;;;;;;;;;;;;;;;;;;4937752;28;854;-75
2022/06/20 00:52:39;;;;;;;;;;;;;;;;;;4932379;28;1013;-75
2022/06/20 00:55:11;;;;;;;;;;;;;;;;;;4936606;28;854;-74
2022/06/20 00:57:38;;;;;;;;;;;;;;;;;;4952072;28;1437;-77
2022/06/20 01:00:06;;;;;;;;;;;;;;;;;;4929177;28;925;-75
2022/06/20 01:02:38;;;;;;;;;;;;;;;;;;4916349;28;1292;-75
2022/06/20 01:05:06;;;;;;;;;;;;;;;;;;4936948;28;1936;-77
2022/06/20 01:07:34;;;;;;;;;;;;;;;;;;4937979;28;2003;-75
2022/06/20 01:10:00;;;;;;;;;;;;;;;;;;4940961;28;1033;-77
2022/06/20 01:12:29;;;;;;;;;;;;;;;;;;4933692;28;926;-75
2022/06/20 01:14:55;;;;;;;;;;;;;;;;;;4978283;28;886;-76
2022/06/20 01:17:22;;;;;;;;;;;;;;;;;;5009685;28;1373;-74
2022/06/20 01:19:54;;;;;;;;;;;;;;;;;;5010222;28;1180;-76
2022/06/20 01:22:30;;;;;;;;;;;;;;;;;;5011708;28;1111;-76
2022/06/20 01:25:02;;;;;;;;;;;;;;;;;;5011540;28;925;-76
2022/06/20 01:27:32;;;;;;;;;;;;;;;;;;5011145;28;1910;-76
2022/06/20 01:29:58;;;;;;;;;;;;;;;;;;5013500;28;1448;-76
2022/06/20 01:32:24;;;;;;;;;;;;;;;;;;5013400;28;1199;-77
2022/06/20 01:34:50;;;;;;;;;;;;;;;;;;5031190;28;988;-76
2022/06/20 01:37:25;;;;;;;;;;;;;;;;;;5030214;28;1539;-76
2022/06/20 01:39:53;;;;;;;;;;;;;;;;;;5031286;28;1072;-76
2022/06/20 01:42:18;;;;;;;;;;;;;;;;;;5016693;28;1352;-75
2022/06/20 01:44:46;;;;;;;;;;;;;;;;;;5038915;28;893;-75
2022/06/20 01:47:12;;;;;;;;;;;;;;;;;;5018631;28;1981;-75
2022/06/20 01:49:39;;;;;;;;;;;;;;;;;;5031213;28;1044;-76
2022/06/20 01:52:06;;;;;;;;;;;;;;;;;;5031185;28;1096;-75
2022/06/20 01:54:33;;;;;;;;;;;;;;;;;;5013212;28;1242;-76
2022/06/20 01:57:00;;;;;;;;;;;;;;;;;;5012443;28;1340;-77
2022/06/20 01:59:27;;;;;;;;;;;;;;;;;;5031011;28;1223;-77
2022/06/20 02:01:54;;;;;;;;;;;;;;;;;;5030829;28;802;-76
2022/06/20 02:04:22;;;;;;;;;;;;;;;;;;5012826;28;1181;-76
2022/06/20 02:06:48;;;;;;;;;;;;;;;;;;5028833;28;1434;-76
2022/06/20 02:09:15;;;;;;;;;;;;;;;;;;5030806;28;1983;-76
2022/06/20 02:11:42;;;;;;;;;;;;;;;;;;5031261;28;822;-76
2022/06/20 02:14:09;;;;;;;;;;;;;;;;;;5029277;28;1324;-77
2022/06/20 02:16:36;;;;;;;;;;;;;;;;;;5029973;28;1314;-76
2022/06/20 02:19:05;;;;;;;;;;;;;;;;;;5019229;28;1459;-76
2022/06/20 02:21:31;;;;;;;;;;;;;;;;;;5011063;28;1060;-76
2022/06/20 02:23:58;;;;;;;;;;;;;;;;;;5010651;28;1111;-77
2022/06/20 02:26:24;;;;;;;;;;;;;;;;;;4992471;28;1435;-76
2022/06/20 02:28:54;;;;;;;;;;;;;;;;;;5010672;28;1918;-77
2022/06/20 02:31:21;;;;;;;;;;;;;;;;;;5010679;28;1111;-76
2022/06/20 02:33:47;;;;;;;;;;;;;;;;;;5010927;28;879;-77
2022/06/20 02:36:15;;;;;;;;;;;;;;;;;;4992319;28;1357;-75
2022/06/20 02:38:41;;;;;;;;;;;;;;;;;;5010298;28;1048;-76
2022/06/20 02:41:07;;;;;;;;;;;;;;;;;;5010840;28;1138;-77
2022/06/20 02:43:35;;;;;;;;;;;;;;;;;;5010938;28;995;-76
2022/06/20 02:46:01;;;;;;;;;;;;;;;;;;4992975;28;1417;-76
2022/06/20 02:48:29;;;;;;;;;;;;;;;;;;5010262;28;1981;-76
2022/06/20 02:50:56;;;;;;;;;;;;;;;;;;4993841;28;1376;-75
2022/06/20 02:53:24;;;;;;;;;;;;;;;;;;4993427;28;1040;-76
2022/06/20 02:55:51;;;;;;;;;;;;;;;;;;5010826;28;1390;-76
2022/06/20 02:58:19;;;;;;;;;;;;;;;;;;5009877;28;989;-76
2022/06/20 03:00:46;;;;;;;;;;;;;;;;;;5010866;28;839;-76
2022/06/20 03:03:14;;;;;;;;;;;;;;;;;;5014087;28;1060;-77
2022/06/20 03:05:40;;;;;;;;;;;;;;;;;;5014583;28;1299;-76
2022/06/20 03:08:06;;;;;;;;;;;;;;;;;;5013502;28;1981;-77
2022/06/20 03:10:35;;;;;;;;;;;;;;;;;;5014274;28;850;-77
2022/06/20 03:13:01;;;;;;;;;;;;;;;;;;5014325;28;1135;-77
2022/06/20 03:15:27;;;;;;;;;;;;;;;;;;5005050;28;1449;-76
2022/06/20 03:17:57;;;;;;;;;;;;;;;;;;5033187;28;1380;-77
2022/06/20 03:20:25;;;;;;;;;;;;;;;;;;5044790;28;2279;-76
2022/06/20 03:22:54;;;;;;;;;;;;;;;;;;5036302;28;1092;-76
2022/06/20 03:25:20;;;;;;;;;;;;;;;;;;5024268;28;1472;-76
2022/06/20 03:27:51;;;;;;;;;;;;;;;;;;5039379;28;1981;-76
2022/06/20 03:30:23;;;;;;;;;;;;;;;;;;5033961;28;858;-76
2022/06/20 03:32:49;;;;;;;;;;;;;;;;;;5034306;28;1005;-76
2022/06/20 03:35:15;;;;;;;;;;;;;;;;;;5034464;28;894;-76
2022/06/20 03:37:41;;;;;;;;;;;;;;;;;;5033039;28;1345;-76
2022/06/20 03:40:08;;;;;;;;;;;;;;;;;;5033458;28;1135;-76
2022/06/20 03:42:34;;;;;;;;;;;;;;;;;;5033557;28;1071;-76
2022/06/20 03:45:03;;;;;;;;;;;;;;;;;;5033741;28;885;-76
2022/06/20 03:47:31;;;;;;;;;;;;;;;;;;5013941;28;1538;-77
2022/06/20 03:49:59;;;;;;;;;;;;;;;;;;5026893;28;1365;-74
2022/06/20 03:52:25;;;;;;;;;;;;;;;;;;5019826;28;1490;-74
2022/06/20 03:54:53;;;;;;;;;;;;;;;;;;5032332;28;1390;-74
2022/06/20 03:57:20;;;;;;;;;;;;;;;;;;5032069;28;1290;-74
2022/06/20 03:59:47;;;;;;;;;;;;;;;;;;5048832;28;1264;-74
2022/06/20 04:02:17;;;;;;;;;;;;;;;;;;5033483;28;843;-74
2022/06/20 04:04:43;;;;;;;;;;;;;;;;;;5033442;28;1087;-74
2022/06/20 04:07:10;;;;;;;;;;;;;;;;;;5032530;28;1401;-74
2022/06/20 04:12:22;;;;;;;;;;;;;;;;;;5048230;28;853;-74
2022/06/20 04:14:58;;;;;;;;;;;;;;;;;;5032357;28;900;-74
2022/06/20 04:20:15;;;;;;;;;;;;;;;;;;5012952;28;839;-74
2022/06/20 04:22:41;;;;;;;;;;;;;;;;;;5013278;28;962;-74
2022/06/20 04:25:12;;;;;;;;;;;;;;;;;;5015446;28;1476;-74
2022/06/20 04:27:39;;;;;;;;;;;;;;;;;;5012375;28;1436;-75
2022/06/20 04:30:07;;;;;;;;;;;;;;;;;;5013200;28;1910;-74
2022/06/20 04:32:37;;;;;;;;;;;;;;;;;;5012755;28;1120;-74
2022/06/20 04:35:07;;;;;;;;;;;;;;;;;;5013023;28;1104;-75
2022/06/20 04:37:34;;;;;;;;;;;;;;;;;;5018616;28;1460;-74
2022/06/20 04:40:01;;;;;;;;;;;;;;;;;;5032541;28;1154;-75
2022/06/20 04:42:30;;;;;;;;;;;;;;;;;;5032155;28;921;-74
2022/06/20 04:44:56;;;;;;;;;;;;;;;;;;5032029;28;1419;-74
2022/06/20 04:47:27;;;;;;;;;;;;;;;;;;5037233;28;1354;-74
2022/06/20 04:49:54;;;;;;;;;;;;;;;;;;5032602;28;2303;-75
2022/06/20 04:52:24;;;;;;;;;;;;;;;;;;5034027;28;1056;-75
2022/06/20 04:54:50;;;;;;;;;;;;;;;;;;5019745;28;1446;-73
2022/06/20 04:57:17;;;;;;;;;;;;;;;;;;5034490;28;1481;-74
2022/06/20 04:59:43;;;;;;;;;;;;;;;;;;5033166;28;913;-74
2022/06/20 05:02:10;;;;;;;;;;;;;;;;;;5032054;28;1323;-75
2022/06/20 05:04:37;;;;;;;;;;;;;;;;;;5028227;28;1099;-75
2022/06/20 05:07:06;;;;;;;;;;;;;;;;;;5023006;28;1508;-74
2022/06/20 05:09:35;;;;;;;;;;;;;;;;;;5024150;28;2336;-73
2022/06/20 05:12:03;;;;;;;;;;;;;;;;;;4995818;28;1308;-74
2022/06/20 05:14:30;;;;;;;;;;;;;;;;;;4997461;28;1194;-75
2022/06/20 05:16:56;;;;;;;;;;;;;;;;;;5007424;28;1338;-74
2022/06/20 05:19:28;;;;;;;;;;;;;;;;;;4967151;28;1229;-74
2022/06/20 05:21:56;;;;;;;;;;;;;;;;;;4961456;28;845;-74
2022/06/20 05:24:25;;;;;;;;;;;;;;;;;;4962712;28;1098;-74
2022/06/20 05:26:52;;;;;;;;;;;;;;;;;;4961921;28;1497;-74
2022/06/20 05:29:19;;;;;;;;;;;;;;;;;;4963576;28;1926;-74
2022/06/20 05:31:49;;;;;;;;;;;;;;;;;;4968361;28;889;-74
2022/06/20 05:34:17;;;;;;;;;;;;;;;;;;4965698;28;1056;-78
2022/06/20 05:36:46;;;;;;;;;;;;;;;;;;4962381;28;1433;-76
2022/06/20 05:39:12;;;;;;;;;;;;;;;;;;5007290;28;1329;-74
2022/06/20 05:41:40;;;;;;;;;;;;;;;;;;5025687;28;1377;-75
2022/06/20 05:44:08;;;;;;;;;;;;;;;;;;5030082;28;1221;-74
2022/06/20 05:49:12;;;;;;;;;;;;;;;;;;5012977;28;2262;-72
2022/06/20 05:51:39;;;;;;;;;;;;;;;;;;5012613;28;1361;-72
2022/06/20 05:54:06;;;;;;;;;;;;;;;;;;4993653;28;1322;-73
2022/06/20 05:56:35;;;;;;;;;;;;;;;;;;5010736;28;1131;-72
2022/06/20 05:59:02;;;;;;;;;;;;;;;;;;5010924;28;1376;-72
2022/06/20 06:01:30;;;;;;;;;;;;;;;;;;5003859;28;1162;-72
2022/06/20 06:03:58;;;;;;;;;;;;;;;;;;5008620;28;1313;-72
2022/06/20 06:06:27;;;;;;;;;;;;;;;;;;5018961;28;1545;-72
2022/06/20 06:08:55;;;;;;;;;;;;;;;;;;5012254;28;1985;-72
2022/06/20 06:11:22;;;;;;;;;;;;;;;;;;5015545;28;1315;-71
2022/06/20 06:13:49;;;;;;;;;;;;;;;;;;5018389;28;1379;-71
2022/06/20 06:19:04;;;;;;;;;;;;;;;;;;5020257;28;1439;-72
2022/06/20 06:21:30;;;;;;;;;;;;;;;;;;5006903;28;1411;-71
2022/06/20 06:23:57;;;;;;;;;;;;;;;;;;5012669;28;1539;-70
2022/06/20 06:26:23;;;;;;;;;;;;;;;;;;4991986;28;1431;-71
2022/06/20 06:28:49;;;;;;;;;;;;;;;;;;5014010;28;1981;-71
2022/06/20 06:31:19;;;;;;;;;;;;;;;;;;5012004;28;1464;-72
2022/06/20 06:33:49;;;;;;;;;;;;;;;;;;4995633;28;1255;-70
2022/06/20 06:36:16;;;;;;;;;;;;;;;;;;5000314;28;1441;-71
2022/06/20 06:38:43;;;;;;;;;;;;;;;;;;5030779;28;1326;-71
2022/06/20 06:41:14;;;;;;;;;;;;;;;;;;5016593;28;1290;-71
2022/06/20 06:43:41;;;;;;;;;;;;;;;;;;5034442;28;1060;-71
2022/06/20 06:46:10;;;;;;;;;;;;;;;;;;5026994;28;1427;-70
2022/06/20 06:48:40;;;;;;;;;;;;;;;;;;5010528;28;1907;-71
2022/06/20 06:51:07;;;;;;;;;;;;;;;;;;5014991;28;1438;-71
2022/06/20 06:53:34;;;;;;;;;;;;;;;;;;5023212;28;1360;-70
2022/06/20 06:56:00;;;;;;;;;;;;;;;;;;5021719;28;1474;-70
2022/06/20 06:58:28;;;;;;;;;;;;;;;;;;5021628;28;1402;-70
2022/06/20 07:00:55;;;;;;;;;;;;;;;;;;5023650;28;1336;-70
2022/06/20 07:03:22;;;;;;;;;;;;;;;;;;5014352;28;941;-70
2022/06/20 07:05:51;;;;;;;;;;;;;;;;;;5013889;28;1363;-71
2022/06/20 07:08:18;;;;;;;;;;;;;;;;;;5025328;28;1436;-71
2022/06/20 07:10:47;;;;;;;;;;;;;;;;;;5029701;28;1919;-70
2022/06/20 07:13:14;;;;;;;;;;;;;;;;;;5026042;28;1343;-71
2022/06/20 07:15:41;;;;;;;;;;;;;;;;;;5021971;28;1534;-72
2022/06/20 07:18:12;;;;;;;;;;;;;;;;;;5010294;28;1341;-71
2022/06/20 07:20:39;;;;;;;;;;;;;;;;;;5032091;28;1308;-71
2022/06/20 07:23:10;;;;;;;;;;;;;;;;;;5014088;28;787;-71
2022/06/20 07:25:37;;;;;;;;;;;;;;;;;;5014193;28;1264;-70
2022/06/20 07:28:04;;;;;;;;;;;;;;;;;;5006149;28;1333;-71
2022/06/20 07:30:32;;;;;;;;;;;;;;;;;;5001391;28;1926;-71
2022/06/20 07:32:59;;;;;;;;;;;;;;;;;;5022787;28;1363;-71
2022/06/20 07:35:27;;;;;;;;;;;;;;;;;;4999164;28;1509;-71
2022/06/20 07:37:53;;;;;;;;;;;;;;;;;;4998237;28;1434;-71
2022/06/20 07:40:22;;;;;;;;;;;;;;;;;;5025176;28;1205;-71
2022/06/20 07:42:50;;;;;;;;;;;;;;;;;;5033567;28;1067;-71
2022/06/20 07:45:18;;;;;;;;;;;;;;;;;;5015636;28;1998;-70
2022/06/20 07:47:47;;;;;;;;;;;;;;;;;;5031979;28;1386;-71
2022/06/20 07:50:14;;;;;;;;;;;;;;;;;;5033517;28;1914;-70
2022/06/20 07:52:41;;;;;;;;;;;;;;;;;;5033520;28;779;-72
2022/06/20 07:55:08;;;;;;;;;;;;;;;;;;5015592;28;1101;-70
2022/06/20 07:57:36;;;;;;;;;;;;;;;;;;5031985;28;1344;-71
2022/06/20 08:00:05;;;;;;;;;;;;;;;;;;5012926;28;1379;-71
2022/06/20 08:02:32;;;;;;;;;;;;;;;;;;5016464;28;1502;-71
2022/06/20 08:04:59;;;;;;;;;;;;;;;;;;5011685;28;1427;-71
2022/06/20 08:07:26;;;;;;;;;;;;;;;;;;5009148;28;1577;-71
2022/06/20 08:09:53;;;;;;;;;;;;;;;;;;5020388;28;1919;-71
2022/06/20 08:12:21;;;;;;;;;;;;;;;;;;4997514;28;1422;-71
2022/06/20 08:14:50;;;;;;;;;;;;;;;;;;5003802;28;1427;-71
2022/06/20 08:17:16;;;;;;;;;;;;;;;;;;5019481;28;1522;-70
2022/06/20 08:19:42;;;;;;;;;;;;;;;;;;5018677;28;1546;-70
2022/06/20 08:22:10;;;;;;;;;;;;;;;;;;5023778;28;1342;-71
2022/06/20 08:24:37;;;;;;;;;;;;;;;;;;4996293;28;1644;-72
2022/06/20 08:27:05;;;;;;;;;;;;;;;;;;5018447;28;1700;-71
2022/06/20 08:29:34;;;;;;;;;;;;;;;;;;5000778;28;1971;-71
2022/06/20 08:32:03;;;;;;;;;;;;;;;;;;5015515;28;1249;-70
2022/06/20 08:34:31;;;;;;;;;;;;;;;;;;5015881;28;1698;-71
2022/06/20 08:36:58;;;;;;;;;;;;;;;;;;5017815;28;1381;-70
2022/06/20 08:39:25;;;;;;;;;;;;;;;;;;5021508;28;1415;-70
2022/06/20 08:41:57;;;;;;;;;;;;;;;;;;5024047;28;1209;-71
2022/06/20 08:44:41;;;;;;;;;;;;;;;;;;5024859;28;1566;-71
2022/06/20 08:47:22;;;;;;;;;;;;;;;;;;5017473;28;1494;-70
2022/06/20 08:50:04;;;;;;;;;;;;;;;;;;5021574;28;1991;-71
2022/06/20 08:52:46;;;;;;;;;;;;;;;;;;5015907;28;1705;-71
2022/06/20 08:55:33;;;;;;;;;;;;;;;;;;5024928;28;1494;-71
2022/06/20 08:58:01;;;;;;;;;;;;;;;;;;5013906;28;1549;-71
2022/06/20 09:00:29;;;;;;;;;;;;;;;;;;5001098;28;1574;-70
2022/06/20 09:03:03;;;;;;;;;;;;;;;;;;4993124;28;1341;-71
2022/06/20 09:05:40;;;;;;;;;;;;;;;;;;5015578;28;1494;-70
2022/06/20 09:08:12;;;;;;;;;;;;;;;;;;5003478;28;1419;-70
2022/06/20 09:10:45;;;;;;;;;;;;;;;;;;5000971;28;2001;-69
2022/06/20 09:13:15;;;;;;;;;;;;;;;;;;5017610;28;1284;-70
2022/06/20 09:15:45;;;;;;;;;;;;;;;;;;5031846;28;1056;-71
2022/06/20 09:18:14;;;;;;;;;;;;;;;;;;4994352;28;1649;-71
2022/06/20 09:20:41;;;;;;;;;;;;;;;;;;5018783;28;1434;-70
2022/06/20 09:23:09;;;;;;;;;;;;;;;;;;5002501;28;1380;-70
2022/06/20 09:25:39;;;;;;;;;;;;;;;;;;5008489;28;1706;-70
2022/06/20 09:28:10;;;;;;;;;;;;;;;;;;5011941;28;1470;-70
2022/06/20 09:30:38;;;;;;;;;;;;;;;;;;5015067;28;1922;-71
2022/06/20 09:33:20;;;;;;;;;;;;;;;;;;5007164;28;1708;-71
2022/06/20 09:35:52;;;;;;;;;;;;;;;;;;5014655;28;1466;-70
2022/06/20 09:38:22;;;;;;;;;;;;;;;;;;5005845;28;1696;-70
2022/06/20 09:40:51;;;;;;;;;;;;;;;;;;5019637;28;1534;-69
2022/06/20 09:43:20;;;;;;;;;;;;;;;;;;5013168;28;1462;-70
2022/06/20 09:45:47;;;;;;;;;;;;;;;;;;5018707;28;1478;-70
2022/06/20 09:48:15;;;;;;;;;;;;;;;;;;5012851;28;1716;-70
2022/06/20 09:50:45;;;;;;;;;;;;;;;;;;5008906;28;1922;-70
2022/06/20 09:53:14;;;;;;;;;;;;;;;;;;5002097;28;1380;-70
2022/06/20 09:55:43;;;;;;;;;;;;;;;;;;5014581;28;1625;-70
2022/06/20 09:58:12;;;;;;;;;;;;;;;;;;5010470;28;1431;-70
2022/06/20 10:00:39;;;;;;;;;;;;;;;;;;5017887;28;1720;-70
2022/06/20 10:03:07;;;;;;;;;;;;;;;;;;4995263;28;1446;-70
2022/06/20 10:05:36;;;;;;;;;;;;;;;;;;5004440;28;1282;-70
2022/06/20 10:08:05;;;;;;;;;;;;;;;;;;5010316;28;1553;-70
2022/06/20 10:10:32;;;;;;;;;;;;;;;;;;4992872;28;1926;-70
2022/06/20 10:12:59;;;;;;;;;;;;;;;;;;4992847;28;1121;-70
2022/06/20 10:15:29;;;;;;;;;;;;;;;;;;5011206;28;839;-70
2022/06/20 10:17:58;;;;;;;;;;;;;;;;;;5000153;28;1392;-70
2022/06/20 10:20:30;;;;;;;;;;;;;;;;;;5010997;28;1489;-70
2022/06/20 10:22:57;;;;;;;;;;;;;;;;;;5011047;28;957;-70
2022/06/20 10:25:27;;;;;;;;;;;;;;;;;;5010849;28;831;-70
2022/06/20 10:27:54;;;;;;;;;;;;;;;;;;5010076;28;1279;-70
2022/06/20 10:30:20;;;;;;;;;;;;;;;;;;4993280;28;1975;-70
2022/06/20 10:32:58;;;;;;;;;;;;;;;;;;5010593;28;903;-70
2022/06/20 10:35:44;;;;;;;;;;;;;;;;;;4998528;28;1064;-70
2022/06/20 10:38:13;;;;;;;;;;;;;;;;;;5010409;28;1392;-70
2022/06/20 10:40:41;;;;;;;;;;;;;;;;;;5009405;28;862;-70
2022/06/20 10:43:08;;;;;;;;;;;;;;;;;;5010969;28;790;-70
2022/06/20 10:45:36;;;;;;;;;;;;;;;;;;5010975;28;1111;-70
2022/06/20 10:48:08;;;;;;;;;;;;;;;;;;5008681;28;1572;-70
2022/06/20 10:50:35;;;;;;;;;;;;;;;;;;5007624;28;1970;-70
2022/06/20 10:53:05;;;;;;;;;;;;;;;;;;4990983;28;1192;-69
2022/06/20 10:55:35;;;;;;;;;;;;;;;;;;5011770;28;1419;-70
2022/06/20 10:58:04;;;;;;;;;;;;;;;;;;4998828;28;1486;-70
2022/06/20 11:00:32;;;;;;;;;;;;;;;;;;5016381;28;1175;-70
2022/06/20 11:03:07;;;;;;;;;;;;;;;;;;5010604;28;1080;-70
2022/06/20 11:05:38;;;;;;;;;;;;;;;;;;5010939;28;838;-70
2022/06/20 11:08:07;;;;;;;;;;;;;;;;;;5009874;28;1406;-70
2022/06/20 11:10:37;;;;;;;;;;;;;;;;;;5010521;28;1911;-69
2022/06/20 11:13:06;;;;;;;;;;;;;;;;;;5010283;28;1162;-71
2022/06/20 11:15:34;;;;;;;;;;;;;;;;;;5010706;28;898;-70
2022/06/20 11:18:01;;;;;;;;;;;;;;;;;;5009653;28;1339;-70
2022/06/20 11:20:29;;;;;;;;;;;;;;;;;;5010477;28;957;-69
2022/06/20 11:22:59;;;;;;;;;;;;;;;;;;5011872;28;965;-69
2022/06/20 11:25:30;;;;;;;;;;;;;;;;;;5014506;28;750;-70
2022/06/20 11:28:11;;;;;;;;;;;;;;;;;;5013458;28;1333;-70
2022/06/20 11:30:37;;;;;;;;;;;;;;;;;;5011511;28;1911;-70
2022/06/20 11:33:08;;;;;;;;;;;;;;;;;;5013881;28;1119;-70
2022/06/20 11:35:36;;;;;;;;;;;;;;;;;;5014175;28;774;-70
2022/06/20 11:38:08;;;;;;;;;;;;;;;;;;5011883;28;1563;-70
2022/06/20 11:40:38;;;;;;;;;;;;;;;;;;5013898;28;579;-69
2022/06/20 11:43:19;;;;;;;;;;;;;;;;;;5013680;28;1060;-70
2022/06/20 11:45:50;;;;;;;;;;;;;;;;;;5001059;28;1952;-70
2022/06/20 11:48:25;;;;;;;;;;;;;;;;;;5012982;28;1326;-70
2022/06/20 11:50:52;;;;;;;;;;;;;;;;;;5012213;28;2015;-70
2022/06/20 11:53:22;;;;;;;;;;;;;;;;;;5014949;28;1138;-70
2022/06/20 11:55:49;;;;;;;;;;;;;;;;;;5012490;28;1164;-70
2022/06/20 11:58:18;;;;;;;;;;;;;;;;;;5013201;28;1389;-70
2022/06/20 12:00:45;;;;;;;;;;;;;;;;;;5013415;28;850;-70
2022/06/20 12:03:15;;;;;;;;;;;;;;;;;;5012267;28;1308;-70
2022/06/20 12:05:44;;;;;;;;;;;;;;;;;;4998342;28;1484;-70
2022/06/20 12:08:15;;;;;;;;;;;;;;;;;;4975501;28;1331;-70
2022/06/20 12:10:43;;;;;;;;;;;;;;;;;;4993466;28;1918;-70
2022/06/20 12:13:14;;;;;;;;;;;;;;;;;;4993616;28;1048;-70
2022/06/20 12:15:43;;;;;;;;;;;;;;;;;;4993709;28;1096;-69
2022/06/20 12:18:17;;;;;;;;;;;;;;;;;;4992926;28;1399;-69
2022/06/20 12:23:28;;;;;;;;;;;;;;;;;;4993549;28;957;-70
2022/06/20 12:25:58;;;;;;;;;;;;;;;;;;4993291;28;1119;-69
2022/06/20 12:28:25;;;;;;;;;;;;;;;;;;5014614;28;1607;-69
2022/06/20 12:30:53;;;;;;;;;;;;;;;;;;5016868;28;2030;-70
2022/06/20 12:33:19;;;;;;;;;;;;;;;;;;5007692;28;1401;-71
2022/06/20 12:35:46;;;;;;;;;;;;;;;;;;5007402;28;1287;-70
2022/06/20 12:38:13;;;;;;;;;;;;;;;;;;5015986;28;1378;-70
2022/06/20 12:40:40;;;;;;;;;;;;;;;;;;5015394;28;1511;-71
2022/06/20 12:43:10;;;;;;;;;;;;;;;;;;5013429;28;1193;-70
2022/06/20 12:45:43;;;;;;;;;;;;;;;;;;5017914;28;902;-70
2022/06/20 12:48:22;;;;;;;;;;;;;;;;;;5018109;28;1408;-71
2022/06/20 12:50:49;;;;;;;;;;;;;;;;;;5028619;28;1971;-70
2022/06/20 12:53:19;;;;;;;;;;;;;;;;;;5001052;28;1399;-70
2022/06/20 12:55:50;;;;;;;;;;;;;;;;;;5026380;28;1107;-70
2022/06/20 12:58:34;;;;;;;;;;;;;;;;;;5024702;28;1388;-70
2022/06/20 13:01:05;;;;;;;;;;;;;;;;;;5019045;28;1476;-71
2022/06/20 13:03:47;;;;;;;;;;;;;;;;;;5006861;28;1475;-70
2022/06/20 13:06:18;;;;;;;;;;;;;;;;;;4967326;28;1583;-70
2022/06/20 13:08:50;;;;;;;;;;;;;;;;;;5005328;28;1498;-70
2022/06/20 13:11:20;;;;;;;;;;;;;;;;;;5014651;28;1972;-70
2022/06/20 13:13:59;;;;;;;;;;;;;;;;;;5006513;28;1458;-70
2022/06/20 13:16:28;;;;;;;;;;;;;;;;;;4997041;28;1279;-70
2022/06/20 13:19:07;;;;;;;;;;;;;;;;;;5011909;28;1334;-70
2022/06/20 13:21:35;;;;;;;;;;;;;;;;;;5007108;28;1418;-71
2022/06/20 13:24:04;;;;;;;;;;;;;;;;;;5001168;28;1439;-70
2022/06/20 13:26:33;;;;;;;;;;;;;;;;;;5025154;28;1185;-70
2022/06/20 13:29:00;;;;;;;;;;;;;;;;;;5019934;28;1419;-71
2022/06/20 13:31:30;;;;;;;;;;;;;;;;;;5023186;28;1918;-71
2022/06/20 13:33:58;;;;;;;;;;;;;;;;;;5030902;28;962;-71
2022/06/20 13:36:28;;;;;;;;;;;;;;;;;;5006666;28;1283;-70
2022/06/20 13:38:56;;;;;;;;;;;;;;;;;;5022667;28;1425;-71
2022/06/20 13:41:23;;;;;;;;;;;;;;;;;;5022897;28;1206;-71
2022/06/20 13:43:53;;;;;;;;;;;;;;;;;;5027395;28;1495;-71
2022/06/20 13:46:22;;;;;;;;;;;;;;;;;;5010282;28;1426;-71
2022/06/20 13:48:50;;;;;;;;;;;;;;;;;;5005048;28;1423;-71
2022/06/20 13:51:17;;;;;;;;;;;;;;;;;;5023172;28;1973;-71
2022/06/20 13:53:45;;;;;;;;;;;;;;;;;;5012697;28;1474;-71
2022/06/20 13:56:20;;;;;;;;;;;;;;;;;;5014357;28;1312;-71
2022/06/20 13:58:49;;;;;;;;;;;;;;;;;;5023344;28;1403;-71
2022/06/20 14:01:16;;;;;;;;;;;;;;;;;;5011254;28;1230;-70
2022/06/20 14:03:46;;;;;;;;;;;;;;;;;;5009825;28;1435;-71
2022/06/20 14:06:14;;;;;;;;;;;;;;;;;;4994505;28;1274;-70
2022/06/20 14:08:43;;;;;;;;;;;;;;;;;;5004840;28;1435;-70
2022/06/20 14:11:22;;;;;;;;;;;;;;;;;;5021699;28;1982;-70
2022/06/20 14:13:48;;;;;;;;;;;;;;;;;;5030301;28;882;-69
2022/06/20 14:16:20;;;;;;;;;;;;;;;;;;5007782;28;2044;-69
2022/06/20 14:18:46;;;;;;;;;;;;;;;;;;5008487;28;1363;-70
2022/06/20 14:21:14;;;;;;;;;;;;;;;;;;5026198;28;1364;-70
2022/06/20 14:23:40;;;;;;;;;;;;;;;;;;5010026;28;1388;-69
2022/06/20 14:26:08;;;;;;;;;;;;;;;;;;5013804;28;1572;-70
2022/06/20 14:28:35;;;;;;;;;;;;;;;;;;5019456;28;1411;-70
2022/06/20 14:31:03;;;;;;;;;;;;;;;;;;5005164;28;1922;-70
2022/06/20 14:33:31;;;;;;;;;;;;;;;;;;5015094;28;1502;-70
2022/06/20 14:36:01;;;;;;;;;;;;;;;;;;5003310;28;1482;-70
2022/06/20 14:38:31;;;;;;;;;;;;;;;;;;5029901;28;1313;-70
2022/06/20 14:40:58;;;;;;;;;;;;;;;;;;5001055;28;1370;-70
2022/06/20 14:43:26;;;;;;;;;;;;;;;;;;4973480;28;1117;-70
2022/06/20 14:45:57;;;;;;;;;;;;;;;;;;4992431;28;1744;-70
2022/06/20 14:48:24;;;;;;;;;;;;;;;;;;5010564;28;1378;-70
2022/06/20 14:50:52;;;;;;;;;;;;;;;;;;5009115;28;1072;-69
2022/06/20 14:53:20;;;;;;;;;;;;;;;;;;5010105;28;1918;-69
2022/06/20 14:55:51;;;;;;;;;;;;;;;;;;5010344;28;897;-70
2022/06/20 14:58:20;;;;;;;;;;;;;;;;;;5003795;28;1668;-70
2022/06/20 15:00:48;;;;;;;;;;;;;;;;;;4969254;28;1134;-69
2022/06/20 15:03:19;;;;;;;;;;;;;;;;;;4936296;28;1116;-69
2022/06/20 15:05:48;;;;;;;;;;;;;;;;;;4960829;28;1004;-70
2022/06/20 15:08:16;;;;;;;;;;;;;;;;;;4961061;28;1439;-72
2022/06/20 15:10:47;;;;;;;;;;;;;;;;;;4958769;28;1412;-73
2022/06/20 15:13:26;;;;;;;;;;;;;;;;;;4957175;28;1961;-73
2022/06/20 15:15:53;;;;;;;;;;;;;;;;;;4925124;28;1293;-71
2022/06/20 15:18:22;;;;;;;;;;;;;;;;;;4953963;28;1704;-72
2022/06/20 15:20:55;;;;;;;;;;;;;;;;;;4953310;28;1100;-71
2022/06/20 15:23:23;;;;;;;;;;;;;;;;;;4910243;28;1004;-71
2022/06/20 15:25:51;;;;;;;;;;;;;;;;;;4936601;28;1459;-70
2022/06/20 15:28:19;;;;;;;;;;;;;;;;;;4944199;28;1349;-70
2022/06/20 15:30:51;;;;;;;;;;;;;;;;;;4947589;28;1060;-71
2022/06/20 15:33:32;;;;;;;;;;;;;;;;;;4943310;28;2003;-71
2022/06/20 15:35:59;;;;;;;;;;;;;;;;;;4941078;28;1437;-72
2022/06/20 15:38:46;;;;;;;;;;;;;;;;;;4966062;28;1243;-71
2022/06/20 15:41:20;;;;;;;;;;;;;;;;;;4984196;28;866;-71
2022/06/20 15:43:47;;;;;;;;;;;;;;;;;;4951577;28;1696;-71
2022/06/20 15:46:17;;;;;;;;;;;;;;;;;;4924893;28;1302;-72
2022/06/20 15:48:45;;;;;;;;;;;;;;;;;;4932010;28;1408;-70
2022/06/20 15:51:14;;;;;;;;;;;;;;;;;;4932788;28;1373;-70
2022/06/20 15:53:52;;;;;;;;;;;;;;;;;;4944795;28;1942;-70
2022/06/20 15:56:19;;;;;;;;;;;;;;;;;;4943048;28;1634;-71
2022/06/20 15:59:06;;;;;;;;;;;;;;;;;;4929823;28;1457;-70
2022/06/20 16:01:39;;;;;;;;;;;;;;;;;;4937263;28;1942;-72
2022/06/20 16:04:10;;;;;;;;;;;;;;;;;;4948744;28;971;-70
2022/06/20 16:06:39;;;;;;;;;;;;;;;;;;4958783;28;890;-70
2022/06/20 16:09:07;;;;;;;;;;;;;;;;;;4984313;28;1392;-70
2022/06/20 16:11:35;;;;;;;;;;;;;;;;;;4992661;28;1415;-70
2022/06/20 16:14:01;;;;;;;;;;;;;;;;;;5018764;28;1455;-69
2022/06/20 16:16:28;;;;;;;;;;;;;;;;;;5024849;28;1161;-70
2022/06/20 16:18:58;;;;;;;;;;;;;;;;;;5032984;28;1406;-70
2022/06/20 16:21:25;;;;;;;;;;;;;;;;;;5033201;28;1084;-70
2022/06/20 16:23:54;;;;;;;;;;;;;;;;;;5032680;28;1976;-70
2022/06/20 16:26:23;;;;;;;;;;;;;;;;;;5032355;28;767;-70
2022/06/20 16:28:52;;;;;;;;;;;;;;;;;;5033018;28;1286;-70
2022/06/20 16:31:23;;;;;;;;;;;;;;;;;;5032972;28;1116;-70
2022/06/20 16:33:50;;;;;;;;;;;;;;;;;;5032948;28;781;-70
2022/06/20 16:36:19;;;;;;;;;;;;;;;;;;5031772;28;1057;-70
2022/06/20 16:38:46;;;;;;;;;;;;;;;;;;5032421;28;1298;-70
2022/06/20 16:41:14;;;;;;;;;;;;;;;;;;5031496;28;918;-70
2022/06/20 16:43:40;;;;;;;;;;;;;;;;;;5032627;28;1918;-70
2022/06/20 16:46:08;;;;;;;;;;;;;;;;;;5030366;28;1134;-70
2022/06/20 16:48:43;;;;;;;;;;;;;;;;;;5032239;28;1425;-70
2022/06/20 16:51:12;;;;;;;;;;;;;;;;;;5031889;28;1056;-71
2022/06/20 16:53:41;;;;;;;;;;;;;;;;;;5031889;28;941;-70
2022/06/20 16:56:08;;;;;;;;;;;;;;;;;;5031661;28;1402;-71
2022/06/20 16:58:45;;;;;;;;;;;;;;;;;;5031707;28;1374;-71
2022/06/20 17:01:12;;;;;;;;;;;;;;;;;;5031708;28;1119;-70
2022/06/20 17:03:40;;;;;;;;;;;;;;;;;;5004910;28;1930;-69
2022/06/20 17:06:07;;;;;;;;;;;;;;;;;;5017186;28;1203;-69
2022/06/20 17:08:37;;;;;;;;;;;;;;;;;;4975920;28;1358;-69
2022/06/20 17:11:05;;;;;;;;;;;;;;;;;;4961238;28;1631;-70
2022/06/20 17:13:35;;;;;;;;;;;;;;;;;;4945559;28;803;-70
2022/06/20 17:16:08;;;;;;;;;;;;;;;;;;4909443;28;1638;-70
2022/06/20 17:18:37;;;;;;;;;;;;;;;;;;4922697;28;1263;-70
2022/06/20 17:21:05;;;;;;;;;;;;;;;;;;4920297;28;724;-70
2022/06/20 17:23:35;;;;;;;;;;;;;;;;;;4928158;28;1939;-70
2022/06/20 17:26:09;;;;;;;;;;;;;;;;;;4943764;28;799;-71
2022/06/20 17:28:39;;;;;;;;;;;;;;;;;;4936652;28;1409;-70
2022/06/20 17:31:08;;;;;;;;;;;;;;;;;;4935577;28;1703;-70